createdAt,value
2023-04-16T00:00:10.033Z,17.63
2023-04-16T00:02:38.145Z,18.73
2023-04-16T00:05:06.884Z,19.50
2023-04-16T00:07:36.199Z,17.97
2023-04-16T00:10:04.228Z,19.20
2023-04-16T00:12:32.204Z,16.90
2023-04-16T00:15:00.105Z,17.97
2023-04-16T00:17:28.037Z,16.63
2023-04-16T00:19:55.902Z,18.00
2023-04-16T00:22:23.809Z,18.90
2023-04-16T00:24:53.078Z,18.50
2023-04-16T00:27:21.329Z,18.87
2023-04-16T00:29:49.228Z,18.87
2023-04-16T00:32:17.330Z,17.93
2023-04-16T00:34:45.463Z,17.23
2023-04-16T00:37:13.378Z,18.70
2023-04-16T00:39:41.273Z,18.00
2023-04-16T00:42:11.733Z,18.27
2023-04-16T00:44:39.665Z,18.20
2023-04-16T00:47:08.101Z,18.37
2023-04-16T00:49:36.921Z,18.07
2023-04-16T00:52:06.674Z,17.80
2023-04-16T00:54:34.815Z,17.40
2023-04-16T00:57:03.374Z,16.60
2023-04-16T00:59:33.362Z,17.70
2023-04-16T01:02:01.641Z,16.33
2023-04-16T01:04:30.991Z,18.23
2023-04-16T01:06:59.091Z,16.77
2023-04-16T01:09:27.048Z,17.00
2023-04-16T01:11:54.945Z,17.50
2023-04-16T01:14:22.867Z,17.03
2023-04-16T01:16:52.133Z,17.00
2023-04-16T01:19:20.019Z,16.77
2023-04-16T01:21:49.305Z,16.03
2023-04-16T01:24:17.193Z,16.50
2023-04-16T01:26:45.142Z,16.87
2023-04-16T01:29:13.021Z,16.47
2023-04-16T01:31:41.140Z,16.77
2023-04-16T01:34:09.113Z,17.00
2023-04-16T01:36:37.044Z,15.83
2023-04-16T01:39:06.428Z,15.57
2023-04-16T01:41:34.342Z,16.77
2023-04-16T01:44:02.267Z,17.47
2023-04-16T01:46:31.870Z,16.17
2023-04-16T01:48:59.968Z,15.73
2023-04-16T01:51:28.198Z,16.70
2023-04-16T01:53:58.151Z,15.80
2023-04-16T01:56:27.468Z,16.73
2023-04-16T01:58:55.396Z,15.30
2023-04-16T02:01:23.449Z,16.03
2023-04-16T02:03:52.943Z,16.77
2023-04-16T02:06:20.945Z,15.53
2023-04-16T02:08:49.018Z,15.50
2023-04-16T02:11:16.991Z,14.40
2023-04-16T02:13:46.244Z,16.27
2023-04-16T02:16:14.135Z,16.27
2023-04-16T02:18:42.037Z,15.07
2023-04-16T02:21:10.009Z,15.07
2023-04-16T02:23:40.923Z,15.50
2023-04-16T02:26:08.927Z,15.63
2023-04-16T02:28:36.819Z,15.80
2023-04-16T02:31:06.311Z,15.27
2023-04-16T02:33:35.855Z,15.97
2023-04-16T02:36:03.774Z,14.53
2023-04-16T02:38:31.707Z,16.13
2023-04-16T02:40:59.639Z,16.17
2023-04-16T02:43:27.607Z,15.27
2023-04-16T02:45:55.586Z,15.40
2023-04-16T02:48:24.964Z,17.30
2023-04-16T02:50:52.852Z,17.57
2023-04-16T02:53:21.371Z,17.07
2023-04-16T02:55:53.542Z,17.07
2023-04-16T02:58:22.135Z,18.13
2023-04-16T03:00:50.007Z,17.33
2023-04-16T03:03:18.037Z,17.70
2023-04-16T03:05:47.356Z,17.07
2023-04-16T03:08:15.479Z,16.67
2023-04-16T03:10:43.424Z,17.30
2023-04-16T03:13:11.345Z,17.70
2023-04-16T03:15:39.248Z,19.10
2023-04-16T03:18:09.016Z,18.67
2023-04-16T03:20:36.942Z,18.83
2023-04-16T03:23:06.216Z,18.77
2023-04-16T03:25:34.134Z,18.40
2023-04-16T03:28:03.683Z,18.60
2023-04-16T03:30:31.789Z,18.47
2023-04-16T03:32:59.767Z,18.30
2023-04-16T03:35:30.032Z,19.50
2023-04-16T03:37:58.017Z,17.63
2023-04-16T03:40:27.403Z,17.90
2023-04-16T03:42:55.657Z,18.67
2023-04-16T03:45:23.568Z,17.90
2023-04-16T03:47:52.840Z,18.20
2023-04-16T03:50:20.914Z,18.10
2023-04-16T03:52:49.436Z,18.50
2023-04-16T03:55:17.619Z,18.30
2023-04-16T03:57:46.901Z,18.97
2023-04-16T04:00:15.216Z,17.60
2023-04-16T04:02:43.327Z,18.83
2023-04-16T04:05:11.463Z,18.60
2023-04-16T04:07:39.386Z,18.40
2023-04-16T04:10:08.802Z,18.47
2023-04-16T04:12:36.700Z,18.03
2023-04-16T04:15:07.125Z,19.43
2023-04-16T04:17:35.058Z,18.63
2023-04-16T04:20:03.097Z,18.80
2023-04-16T04:22:31.145Z,19.00
2023-04-16T04:24:59.025Z,17.30
2023-04-16T04:27:27.120Z,18.30
2023-04-16T04:29:54.985Z,18.77
2023-04-16T04:32:24.339Z,17.93
2023-04-16T04:34:52.234Z,18.70
2023-04-16T04:37:20.179Z,18.90
2023-04-16T04:39:48.078Z,17.87
2023-04-16T04:42:19.551Z,19.00
2023-04-16T04:44:47.631Z,17.80
2023-04-16T04:47:16.373Z,17.23
2023-04-16T04:49:45.603Z,18.23
2023-04-16T04:52:13.621Z,17.37
2023-04-16T04:54:42.123Z,18.17
2023-04-16T04:57:10.053Z,17.07
2023-04-16T04:59:37.979Z,17.40
2023-04-16T05:02:06.241Z,17.57
2023-04-16T05:04:34.313Z,17.57
2023-04-16T05:07:03.783Z,18.07
2023-04-16T05:09:31.731Z,17.40
2023-04-16T05:11:59.793Z,17.73
2023-04-16T05:14:27.701Z,17.93
2023-04-16T05:16:56.372Z,17.83
2023-04-16T05:19:24.343Z,17.60
2023-04-16T05:21:52.304Z,18.30
2023-04-16T05:24:21.554Z,17.17
2023-04-16T05:26:49.454Z,18.03
2023-04-16T05:29:17.627Z,17.80
2023-04-16T05:31:45.833Z,17.37
2023-04-16T05:34:13.768Z,17.50
2023-04-16T05:36:41.801Z,18.10
2023-04-16T05:39:10.658Z,18.33
2023-04-16T05:41:40.069Z,18.20
2023-04-16T05:44:07.977Z,18.00
2023-04-16T05:46:36.259Z,18.43
2023-04-16T05:49:04.261Z,17.20
2023-04-16T05:51:32.360Z,18.43
2023-04-16T05:54:00.275Z,18.97
2023-04-16T05:56:28.239Z,19.80
2023-04-16T05:58:58.054Z,19.53
2023-04-16T06:01:26.664Z,17.93
2023-04-16T06:03:54.790Z,17.57
2023-04-16T06:06:22.854Z,18.13
2023-04-16T06:08:50.736Z,18.17
2023-04-16T06:11:18.638Z,18.27
2023-04-16T06:13:46.548Z,18.57
2023-04-16T06:16:15.803Z,17.63
2023-04-16T06:18:43.691Z,19.27
2023-04-16T06:21:11.611Z,17.47
2023-04-16T06:23:39.539Z,17.87
2023-04-16T06:26:07.420Z,19.50
2023-04-16T06:28:35.338Z,17.93
2023-04-16T06:31:03.363Z,17.50
2023-04-16T06:33:32.796Z,18.00
2023-04-16T06:36:00.725Z,18.80
2023-04-16T06:38:28.652Z,17.43
2023-04-16T06:40:56.595Z,17.57
2023-04-16T06:43:24.543Z,17.97
2023-04-16T06:45:52.431Z,18.03
2023-04-16T06:48:20.373Z,17.70
2023-04-16T06:50:49.670Z,18.10
2023-04-16T06:53:17.649Z,16.90
2023-04-16T06:55:45.514Z,17.27
2023-04-16T06:58:13.420Z,16.37
2023-04-16T07:00:41.378Z,17.10
2023-04-16T07:03:09.561Z,17.50
2023-04-16T07:05:37.686Z,17.27
2023-04-16T07:08:07.216Z,16.97
2023-04-16T07:10:35.248Z,16.30
2023-04-16T07:13:03.197Z,17.13
2023-04-16T07:15:31.129Z,16.83
2023-04-16T07:17:59.133Z,15.70
2023-04-16T07:20:27.125Z,16.37
2023-04-16T07:22:55.152Z,17.20
2023-04-16T07:25:24.550Z,16.67
2023-04-16T07:27:52.762Z,17.07
2023-04-16T07:30:20.669Z,17.87
2023-04-16T07:32:48.683Z,16.10
2023-04-16T07:35:16.809Z,16.33
2023-04-16T07:37:45.018Z,16.60
2023-04-16T07:40:13.476Z,15.93
2023-04-16T07:42:42.780Z,15.93
2023-04-16T07:45:11.590Z,16.10
2023-04-16T07:47:39.506Z,16.17
2023-04-16T07:50:09.075Z,16.40
2023-04-16T07:52:38.789Z,16.33
2023-04-16T07:55:07.409Z,16.13
2023-04-16T07:57:35.452Z,15.77
2023-04-16T08:00:05.911Z,16.30
2023-04-16T08:02:33.973Z,16.13
2023-04-16T08:05:02.095Z,14.67
2023-04-16T08:07:30.306Z,16.40
2023-04-16T08:09:58.327Z,16.27
2023-04-16T08:12:26.265Z,15.30
2023-04-16T08:14:54.162Z,17.23
2023-04-16T08:17:23.422Z,14.90
2023-04-16T08:19:51.344Z,14.83
2023-04-16T08:22:19.616Z,15.50
2023-04-16T08:24:47.555Z,15.93
2023-04-16T08:27:19.772Z,14.23
2023-04-16T08:29:48.577Z,15.90
2023-04-16T08:32:16.539Z,15.27
2023-04-16T08:34:45.928Z,15.70
2023-04-16T08:37:13.863Z,14.27
2023-04-16T08:39:41.766Z,15.20
2023-04-16T08:42:14.372Z,15.30
2023-04-16T08:44:49.195Z,16.10
2023-04-16T08:47:17.795Z,15.40
2023-04-16T08:49:47.216Z,15.80
2023-04-16T08:52:19.489Z,15.37
2023-04-16T08:54:56.507Z,15.07
2023-04-16T08:57:31.594Z,14.77
2023-04-16T09:00:00.570Z,14.30
2023-04-16T09:02:29.044Z,15.13
2023-04-16T09:05:01.865Z,15.60
2023-04-16T09:07:30.907Z,14.57
2023-04-16T09:10:00.561Z,14.93
2023-04-16T09:12:28.790Z,14.83
2023-04-16T09:14:59.698Z,16.47
2023-04-16T09:17:28.261Z,14.80
2023-04-16T09:19:56.245Z,15.03
2023-04-16T09:22:25.773Z,14.60
2023-04-16T09:24:53.676Z,14.20
2023-04-16T09:27:23.733Z,15.00
2023-04-16T09:29:53.434Z,15.60
2023-04-16T09:32:27.178Z,14.77
2023-04-16T09:34:57.345Z,14.77
2023-04-16T09:37:27.187Z,14.33
2023-04-16T09:39:56.801Z,15.17
2023-04-16T09:42:27.379Z,14.83
2023-04-16T09:44:59.447Z,13.83
2023-04-16T09:47:40.948Z,14.40
2023-04-16T09:50:11.967Z,14.97
2023-04-16T09:52:45.423Z,13.20
2023-04-16T09:55:13.452Z,14.60
2023-04-16T09:57:41.419Z,14.50
2023-04-16T10:00:11.724Z,14.07
2023-04-16T10:02:42.761Z,13.77
2023-04-16T10:05:16.640Z,14.03
2023-04-16T10:07:45.978Z,14.50
2023-04-16T10:10:14.008Z,15.23
2023-04-16T10:12:42.360Z,14.00
2023-04-16T10:15:11.067Z,13.57
2023-04-16T10:17:39.561Z,13.40
2023-04-16T10:20:09.396Z,13.53
2023-04-16T10:22:38.414Z,13.63
2023-04-16T10:25:08.916Z,13.23
2023-04-16T10:27:38.290Z,13.70
2023-04-16T10:30:08.386Z,13.83
2023-04-16T10:32:37.998Z,14.40
2023-04-16T10:35:07.251Z,13.97
2023-04-16T10:37:35.386Z,14.50
2023-04-16T10:40:22.692Z,15.50
2023-04-16T10:42:57.045Z,15.23
2023-04-16T10:45:31.472Z,14.30
2023-04-16T10:47:59.759Z,14.73
2023-04-16T10:50:36.405Z,14.90
2023-04-16T10:53:21.314Z,14.20
2023-04-16T10:55:59.753Z,14.23
2023-04-16T10:58:33.117Z,15.03
2023-04-16T11:01:01.601Z,14.80
2023-04-16T11:03:32.565Z,15.20
2023-04-16T11:06:14.581Z,15.33
2023-04-16T11:08:54.000Z,15.10
2023-04-16T11:11:23.229Z,14.70
2023-04-16T11:13:56.887Z,14.73
2023-04-16T11:16:26.555Z,14.83
2023-04-16T11:18:56.328Z,14.50
2023-04-16T11:21:25.458Z,14.73
2023-04-16T11:23:54.410Z,14.80
2023-04-16T11:26:25.074Z,15.90
2023-04-16T11:28:54.894Z,14.77
2023-04-16T11:31:23.402Z,15.00
2023-04-16T11:33:51.727Z,14.73
2023-04-16T11:36:23.751Z,16.40
2023-04-16T11:39:02.044Z,14.93
2023-04-16T11:41:29.982Z,16.40
2023-04-16T11:43:59.426Z,15.10
2023-04-16T11:46:39.401Z,14.07
2023-04-16T11:49:07.536Z,13.60
2023-04-16T11:51:40.881Z,14.30
2023-04-16T11:54:11.654Z,13.90
2023-04-16T11:56:46.573Z,13.90
2023-04-16T11:59:17.667Z,13.63
2023-04-16T12:01:49.183Z,14.23
2023-04-16T12:04:20.246Z,13.27
2023-04-16T12:07:07.864Z,14.77
2023-04-16T12:09:38.688Z,13.47
2023-04-16T12:12:26.330Z,13.63
2023-04-16T12:14:56.845Z,13.60
2023-04-16T12:17:25.527Z,14.33
2023-04-16T12:19:56.562Z,15.00
2023-04-16T12:22:29.175Z,15.27
2023-04-16T12:24:59.386Z,13.90
2023-04-16T12:27:28.593Z,13.90
2023-04-16T12:30:09.059Z,14.70
2023-04-16T12:32:37.012Z,14.13
2023-04-16T12:35:05.483Z,14.37
2023-04-16T12:37:33.488Z,14.10
2023-04-16T12:40:01.730Z,14.47
2023-04-16T12:42:35.564Z,13.70
2023-04-16T12:45:05.025Z,15.47
2023-04-16T12:47:34.479Z,14.17
2023-04-16T12:50:04.679Z,14.70
2023-04-16T12:52:32.686Z,14.80
2023-04-16T12:55:00.721Z,13.10
2023-04-16T12:57:29.423Z,13.53
2023-04-16T12:59:57.516Z,14.57
2023-04-16T13:02:26.205Z,13.87
2023-04-16T13:04:56.012Z,13.87
2023-04-16T13:07:24.207Z,15.10
2023-04-16T13:09:52.218Z,14.10
2023-04-16T13:12:20.165Z,14.47
2023-04-16T13:14:48.127Z,14.90
2023-04-16T13:17:16.272Z,15.10
2023-04-16T13:19:44.206Z,15.63
2023-04-16T13:22:13.546Z,15.00
2023-04-16T13:24:41.481Z,15.27
2023-04-16T13:27:09.413Z,16.63
2023-04-16T13:29:37.588Z,15.50
2023-04-16T13:32:06.243Z,15.93
2023-04-16T13:34:34.305Z,15.70
2023-04-16T13:37:02.232Z,15.13
2023-04-16T13:39:31.504Z,15.43
2023-04-16T13:42:00.094Z,17.03
2023-04-16T13:44:28.033Z,17.30
2023-04-16T13:46:56.133Z,15.13
2023-04-16T13:49:24.400Z,16.10
2023-04-16T13:51:52.349Z,14.30
2023-04-16T13:54:23.220Z,15.90
2023-04-16T13:56:52.646Z,15.53
2023-04-16T13:59:20.692Z,15.57
2023-04-16T14:01:48.725Z,15.90
2023-04-16T14:04:16.675Z,15.50
2023-04-16T14:06:44.605Z,15.00
2023-04-16T14:09:12.942Z,14.70
2023-04-16T14:11:41.077Z,15.27
2023-04-16T14:14:13.266Z,15.87
2023-04-16T14:16:41.283Z,14.70
2023-04-16T14:19:09.541Z,14.77
2023-04-16T14:21:37.731Z,14.57
2023-04-16T14:24:09.329Z,14.87
2023-04-16T14:26:38.947Z,14.80
2023-04-16T14:29:07.277Z,15.10
2023-04-16T14:31:37.736Z,15.67
2023-04-16T14:34:05.792Z,15.20
2023-04-16T14:36:33.840Z,15.40
2023-04-16T14:39:02.036Z,14.90
2023-04-16T14:41:29.969Z,15.13
2023-04-16T14:43:57.888Z,15.97
2023-04-16T14:46:27.084Z,16.20
2023-04-16T14:48:59.118Z,15.90
2023-04-16T14:51:27.522Z,17.07
2023-04-16T14:53:57.985Z,15.43
2023-04-16T14:56:25.940Z,15.90
2023-04-16T14:58:53.880Z,15.93
2023-04-16T15:01:21.892Z,15.20
2023-04-16T15:03:50.107Z,14.70
2023-04-16T15:06:19.474Z,15.00
2023-04-16T15:08:47.401Z,15.20
2023-04-16T15:11:15.336Z,16.17
2023-04-16T15:13:43.221Z,15.83
2023-04-16T15:16:11.129Z,15.63
2023-04-16T15:18:39.109Z,16.10
2023-04-16T15:21:07.261Z,15.70
2023-04-16T15:23:36.654Z,15.90
2023-04-16T15:26:05.414Z,15.87
2023-04-16T15:28:33.379Z,15.67
2023-04-16T15:31:01.431Z,16.20
2023-04-16T15:33:29.531Z,16.13
2023-04-16T15:35:57.436Z,15.83
2023-04-16T15:38:25.480Z,15.17
2023-04-16T15:40:54.803Z,15.80
2023-04-16T15:43:22.730Z,16.23
2023-04-16T15:45:51.865Z,16.20
2023-04-16T15:48:19.836Z,15.97
2023-04-16T15:50:47.930Z,15.90
2023-04-16T15:53:15.959Z,15.53
2023-04-16T15:55:44.419Z,15.73
2023-04-16T15:58:13.899Z,15.70
2023-04-16T16:00:41.827Z,16.20
2023-04-16T16:03:10.366Z,16.83
2023-04-16T16:05:38.390Z,16.20
2023-04-16T16:08:06.473Z,17.07
2023-04-16T16:10:34.937Z,16.00
2023-04-16T16:13:05.371Z,15.57
2023-04-16T16:15:35.276Z,16.90
2023-04-16T16:18:03.272Z,16.87
2023-04-16T16:20:31.888Z,15.50
2023-04-16T16:22:59.810Z,15.80
2023-04-16T16:25:27.756Z,16.70
2023-04-16T16:27:55.657Z,15.83
2023-04-16T16:30:23.678Z,16.73
2023-04-16T16:32:53.291Z,16.37
2023-04-16T16:35:21.570Z,17.90
2023-04-16T16:37:49.443Z,15.70
2023-04-16T16:40:17.450Z,16.30
2023-04-16T16:42:45.719Z,16.17
2023-04-16T16:45:13.705Z,16.03
2023-04-16T16:47:41.757Z,16.60
2023-04-16T16:50:12.444Z,16.47
2023-04-16T16:52:40.417Z,16.23
2023-04-16T16:55:10.931Z,16.60
2023-04-16T16:57:39.237Z,16.03
2023-04-16T17:00:14.212Z,16.87
2023-04-16T17:02:42.448Z,17.20
2023-04-16T17:05:12.474Z,16.73
2023-04-16T17:07:40.508Z,16.50
2023-04-16T17:10:11.105Z,15.73
2023-04-16T17:12:39.032Z,16.10
2023-04-16T17:15:08.001Z,16.60
2023-04-16T17:17:36.395Z,16.30
2023-04-16T17:20:08.802Z,17.00
2023-04-16T17:22:38.697Z,15.80
2023-04-16T17:25:08.187Z,16.80
2023-04-16T17:27:36.217Z,16.03
2023-04-16T17:30:05.767Z,16.40
2023-04-16T17:32:33.998Z,16.97
2023-04-16T17:35:04.058Z,17.00
2023-04-16T17:37:32.238Z,16.53
2023-04-16T17:40:01.478Z,16.17
2023-04-16T17:42:29.411Z,17.33
2023-04-16T17:44:57.300Z,16.67
2023-04-16T17:47:25.491Z,15.67
2023-04-16T17:49:54.991Z,16.43
2023-04-16T17:52:23.077Z,16.00
2023-04-16T17:54:50.962Z,16.50
2023-04-16T17:57:20.198Z,17.30
2023-04-16T17:59:48.104Z,17.40
2023-04-16T18:02:16.230Z,16.87
2023-04-16T18:04:44.304Z,16.00
2023-04-16T18:07:12.618Z,16.97
2023-04-16T18:09:40.529Z,16.90
2023-04-16T18:12:08.630Z,17.80
2023-04-16T18:14:38.732Z,17.47
2023-04-16T18:17:06.897Z,17.13
2023-04-16T18:19:35.462Z,17.70
2023-04-16T18:22:03.403Z,17.30
2023-04-16T18:24:33.268Z,17.73
2023-04-16T18:27:01.608Z,17.03
2023-04-16T18:29:29.759Z,17.53
2023-04-16T18:31:59.290Z,17.00
2023-04-16T18:34:29.546Z,17.80
2023-04-16T18:36:57.558Z,16.60
2023-04-16T18:39:25.498Z,16.67
2023-04-16T18:41:53.381Z,16.80
2023-04-16T18:44:21.377Z,17.93
2023-04-16T18:46:49.475Z,17.20
2023-04-16T18:49:18.832Z,18.10
2023-04-16T18:51:46.793Z,16.60
2023-04-16T18:54:14.747Z,16.63
2023-04-16T18:56:42.636Z,16.70
2023-04-16T18:59:10.902Z,17.67
2023-04-16T19:01:38.910Z,17.17
2023-04-16T19:04:06.996Z,18.50
2023-04-16T19:06:36.314Z,18.33
2023-04-16T19:09:04.258Z,17.67
2023-04-16T19:11:32.192Z,17.00
2023-04-16T19:14:03.115Z,18.07
2023-04-16T19:16:31.052Z,17.83
2023-04-16T19:18:59.070Z,17.10
2023-04-16T19:21:27.444Z,17.77
2023-04-16T19:23:56.823Z,18.43
2023-04-16T19:26:24.789Z,18.67
2023-04-16T19:28:52.676Z,18.07
2023-04-16T19:31:20.691Z,18.07
2023-04-16T19:33:48.623Z,17.83
2023-04-16T19:36:16.566Z,17.97
2023-04-16T19:38:44.513Z,18.63
2023-04-16T19:41:13.847Z,18.90
2023-04-16T19:43:41.734Z,18.83
2023-04-16T19:46:09.666Z,19.03
2023-04-16T19:48:37.618Z,18.40
2023-04-16T19:51:05.750Z,17.73
2023-04-16T19:53:34.353Z,18.77
2023-04-16T19:56:02.349Z,19.30
2023-04-16T19:58:31.733Z,18.53
2023-04-16T20:00:59.691Z,19.33
2023-04-16T20:03:27.732Z,18.47
2023-04-16T20:05:55.680Z,18.23
2023-04-16T20:08:23.594Z,18.03
2023-04-16T20:10:54.249Z,18.17
2023-04-16T20:13:22.166Z,18.17
2023-04-16T20:15:54.330Z,17.60
2023-04-16T20:18:22.345Z,18.60
2023-04-16T20:20:50.255Z,18.73
2023-04-16T20:23:18.419Z,18.70
2023-04-16T20:25:47.122Z,18.10
2023-04-16T20:28:16.220Z,20.03
2023-04-16T20:30:44.291Z,18.87
2023-04-16T20:33:13.762Z,18.70
2023-04-16T20:35:41.723Z,17.63
2023-04-16T20:38:09.769Z,19.00
2023-04-16T20:40:38.808Z,18.53
2023-04-16T20:43:09.993Z,18.07
2023-04-16T20:45:40.774Z,18.10
2023-04-16T20:48:08.951Z,19.47
2023-04-16T20:50:38.314Z,18.60
2023-04-16T20:53:06.303Z,19.23
2023-04-16T20:55:34.245Z,19.40
2023-04-16T20:58:02.192Z,17.77
2023-04-16T21:00:30.155Z,18.27
2023-04-16T21:02:58.263Z,18.40
2023-04-16T21:05:26.573Z,18.30
2023-04-16T21:07:55.982Z,19.07
2023-04-16T21:10:23.888Z,19.20
2023-04-16T21:12:51.854Z,19.43
2023-04-16T21:15:19.771Z,19.10
2023-04-16T21:17:47.704Z,18.63
2023-04-16T21:20:15.907Z,17.90
2023-04-16T21:22:43.802Z,17.90
2023-04-16T21:25:13.321Z,19.50
2023-04-16T21:27:41.195Z,19.60
2023-04-16T21:30:10.471Z,18.37
2023-04-16T21:32:38.993Z,19.47
2023-04-16T21:35:07.524Z,20.07
2023-04-16T21:37:35.440Z,19.20
2023-04-16T21:40:04.928Z,18.47
2023-04-16T21:42:35.805Z,19.20
2023-04-16T21:45:03.804Z,19.53
2023-04-16T21:47:31.720Z,20.73
2023-04-16T21:49:59.649Z,21.20
2023-04-16T21:52:27.573Z,20.70
2023-04-16T21:54:55.487Z,19.07
2023-04-16T21:57:23.412Z,19.40
2023-04-16T21:59:52.720Z,21.77
2023-04-16T22:02:20.755Z,20.73
2023-04-16T22:04:48.764Z,20.30
2023-04-16T22:07:17.437Z,21.13
2023-04-16T22:09:45.400Z,20.10
2023-04-16T22:12:13.345Z,21.23
2023-04-16T22:14:49.203Z,21.77
2023-04-16T22:17:31.159Z,21.87
2023-04-16T22:20:00.497Z,21.17
2023-04-16T22:22:28.439Z,21.30
2023-04-16T22:24:56.332Z,22.73
2023-04-16T22:27:24.210Z,21.70
2023-04-16T22:29:52.097Z,21.60
2023-04-16T22:32:20.267Z,21.20
2023-04-16T22:34:49.620Z,22.33
2023-04-16T22:37:17.525Z,21.50
2023-04-16T22:39:45.523Z,21.07
2023-04-16T22:42:13.455Z,20.70
2023-04-16T22:44:41.374Z,20.87
2023-04-16T22:47:09.276Z,21.73
2023-04-16T22:49:37.184Z,20.83
2023-04-16T22:52:06.637Z,22.10
2023-04-16T22:54:34.576Z,21.13
2023-04-16T22:57:02.507Z,19.80
2023-04-16T22:59:30.992Z,21.67
2023-04-16T23:01:58.975Z,21.53
2023-04-16T23:04:29.932Z,21.30
2023-04-16T23:06:57.994Z,22.50
2023-04-16T23:09:27.208Z,21.70
2023-04-16T23:11:55.783Z,20.63
2023-04-16T23:14:27.261Z,21.10
2023-04-16T23:16:55.192Z,21.23
2023-04-16T23:19:23.086Z,21.50
2023-04-16T23:21:50.980Z,21.37
2023-04-16T23:24:18.893Z,20.70
2023-04-16T23:26:48.940Z,20.70
2023-04-16T23:29:16.825Z,21.77
2023-04-16T23:31:44.784Z,20.70
2023-04-16T23:34:12.708Z,20.23
2023-04-16T23:36:41.080Z,20.27
2023-04-16T23:39:09.027Z,20.53
2023-04-16T23:41:36.995Z,20.50
2023-04-16T23:44:06.596Z,19.97
2023-04-16T23:46:34.562Z,21.23
2023-04-16T23:49:02.508Z,19.97
2023-04-16T23:51:32.657Z,20.87
2023-04-16T23:54:00.535Z,20.20
2023-04-16T23:56:28.500Z,19.90
2023-04-16T23:58:56.419Z,20.80
